This is the latest recevied weather packets stored in our database for station/object K4VEB. If no packets are shown the sender has not sent any weather packets the latest 10 day(s).
| Time | Temp. | Humidity | Pressure | Rain* | Wind** | Luminosity | Snow |
|---|---|---|---|---|---|---|---|
| 1777916522 | 27.22° C | 38% | 1016.5 hPa | 0 mm | - | 862 W/m² | - |
| 1777916218 | 26.67° C | 36% | 1016.6 hPa | 0 mm | - | 865 W/m² | - |
| 1777915916 | 27.22° C | 37% | 1016.6 hPa | 0 mm | - | 866 W/m² | - |
| 1777915612 | 27.22° C | 35% | 1016.6 hPa | 0 mm | - | 867 W/m² | - |
| 1777915309 | 27.22° C | 34% | 1016.7 hPa | 0 mm | - | 866 W/m² | - |
| 1777914398 | 26.67° C | 35% | 1016.9 hPa | 0 mm | - | 848 W/m² | - |
| 1777914096 | 26.67° C | 35% | 1016.9 hPa | 0 mm | - | 848 W/m² | - |
| 1777912578 | 26.67° C | 37% | 1017.2 hPa | 0 mm | - | 813 W/m² | - |
| 1777912275 | 26.67° C | 37% | 1017.3 hPa | 0 mm | - | 813 W/m² | - |
| 1777911971 | 26.11° C | 38% | 1017.5 hPa | 0 mm | - | 796 W/m² | - |
| 1777911667 | 26.11° C | 38% | 1017.3 hPa | 0 mm | - | 796 W/m² | - |
| 1777911363 | 26.11° C | 39% | 1017.4 hPa | 0 mm | - | 790 W/m² | - |
| 1777911061 | 26.11° C | 39% | 1017.6 hPa | 0 mm | - | 787 W/m² | - |
| 1777910151 | 25.56° C | 43% | 1017.5 hPa | 0 mm | - | 741 W/m² | - |
| 1777909849 | 25.56° C | 43% | 1017.4 hPa | 0 mm | - | 741 W/m² | - |
| 1777909243 | 25° C | 44% | 1017.7 hPa | 0 mm | - | 712 W/m² | - |
| 1777908941 | 25° C | 44% | 1017.5 hPa | 0 mm | - | 712 W/m² | - |
| 1777908639 | 25° C | 44% | 1017.5 hPa | 0 mm | - | 706 W/m² | - |
| 1777908031 | 25° C | 46% | 1017.4 hPa | 0 mm | - | 679 W/m² | - |
| 1777907728 | 25° C | 46% | 1017.9 hPa | 0 mm | - | 679 W/m² | - |
| 1777907428 | 25.56° C | 46% | 1017.9 hPa | 0 mm | - | 665 W/m² | - |
| 1777907125 | 25° C | 47% | 1017.8 hPa | 0 mm | - | 664 W/m² | - |
| 1777906823 | 25° C | 47% | 1017.8 hPa | 0 mm | - | 664 W/m² | - |
| 1777906220 | 25° C | 52% | 1017.8 hPa | 0 mm | - | 612 W/m² | - |
| 1777905917 | 25° C | 52% | 1017.9 hPa | 0 mm | - | 612 W/m² | - |
* Rain latest hour (hover to see other rain measurements)
** Current wind speed in m/s (hover to see current wind gust speed)